sensor_id;sensor_type;location;lat;lon;timestamp;temperature;humidity
51655;DHT22;37732;53.106;7.030;2024-01-30T00:01:15;5.10;99.90
51655;DHT22;37732;53.106;7.030;2024-01-30T00:03:41;5.10;99.90
51655;DHT22;37732;53.106;7.030;2024-01-30T00:06:08;4.90;99.90
51655;DHT22;37732;53.106;7.030;2024-01-30T00:08:33;5.30;99.90
51655;DHT22;37732;53.106;7.030;2024-01-30T00:10:59;4.90;99.90
51655;DHT22;37732;53.106;7.030;2024-01-30T00:13:25;4.70;99.90
51655;DHT22;37732;53.106;7.030;2024-01-30T00:15:50;4.70;99.90
51655;DHT22;37732;53.106;7.030;2024-01-30T00:18:16;4.90;99.90
51655;DHT22;37732;53.106;7.030;2024-01-30T00:20:42;4.70;99.90
51655;DHT22;37732;53.106;7.030;2024-01-30T00:23:08;4.70;99.90
51655;DHT22;37732;53.106;7.030;2024-01-30T00:25:34;4.70;99.90
51655;DHT22;37732;53.106;7.030;2024-01-30T00:28:00;4.80;99.90
51655;DHT22;37732;53.106;7.030;2024-01-30T00:30:25;4.80;99.90
51655;DHT22;37732;53.106;7.030;2024-01-30T00:32:51;4.80;99.90
51655;DHT22;37732;53.106;7.030;2024-01-30T00:35:17;4.80;99.90
51655;DHT22;37732;53.106;7.030;2024-01-30T00:37:43;4.90;99.90
51655;DHT22;37732;53.106;7.030;2024-01-30T00:40:09;4.80;99.90
51655;DHT22;37732;53.106;7.030;2024-01-30T00:42:44;4.70;99.90
51655;DHT22;37732;53.106;7.030;2024-01-30T00:45:16;4.70;99.90
51655;DHT22;37732;53.106;7.030;2024-01-30T00:47:42;4.70;99.90
51655;DHT22;37732;53.106;7.030;2024-01-30T00:50:08;4.40;99.90
51655;DHT22;37732;53.106;7.030;2024-01-30T00:52:34;4.80;99.90
51655;DHT22;37732;53.106;7.030;2024-01-30T00:55:00;4.80;99.90
51655;DHT22;37732;53.106;7.030;2024-01-30T00:57:26;4.80;99.90
51655;DHT22;37732;53.106;7.030;2024-01-30T00:59:52;5.60;99.90
51655;DHT22;37732;53.106;7.030;2024-01-30T01:02:18;4.80;99.90
51655;DHT22;37732;53.106;7.030;2024-01-30T01:04:45;5.10;99.90
51655;DHT22;37732;53.106;7.030;2024-01-30T01:07:11;4.90;99.90
51655;DHT22;37732;53.106;7.030;2024-01-30T01:09:37;4.80;99.90
51655;DHT22;37732;53.106;7.030;2024-01-30T01:12:03;4.80;99.90
51655;DHT22;37732;53.106;7.030;2024-01-30T01:14:29;4.80;99.90
51655;DHT22;37732;53.106;7.030;2024-01-30T01:16:55;4.90;99.90
51655;DHT22;37732;53.106;7.030;2024-01-30T01:19:20;4.90;99.90
51655;DHT22;37732;53.106;7.030;2024-01-30T01:21:46;5.20;99.90
51655;DHT22;37732;53.106;7.030;2024-01-30T01:24:12;4.80;99.90
51655;DHT22;37732;53.106;7.030;2024-01-30T01:26:38;4.80;99.90
51655;DHT22;37732;53.106;7.030;2024-01-30T01:29:03;4.90;99.90
51655;DHT22;37732;53.106;7.030;2024-01-30T01:31:36;4.90;99.90
51655;DHT22;37732;53.106;7.030;2024-01-30T01:34:05;5.00;99.90
51655;DHT22;37732;53.106;7.030;2024-01-30T01:36:31;4.60;99.90
51655;DHT22;37732;53.106;7.030;2024-01-30T01:38:57;4.80;99.90
51655;DHT22;37732;53.106;7.030;2024-01-30T01:41:22;4.50;99.90
51655;DHT22;37732;53.106;7.030;2024-01-30T01:43:48;4.50;99.90
51655;DHT22;37732;53.106;7.030;2024-01-30T01:46:16;5.30;99.90
51655;DHT22;37732;53.106;7.030;2024-01-30T01:48:42;4.50;99.90
51655;DHT22;37732;53.106;7.030;2024-01-30T01:51:09;4.40;99.90
51655;DHT22;37732;53.106;7.030;2024-01-30T01:53:35;4.40;99.90
51655;DHT22;37732;53.106;7.030;2024-01-30T01:56:01;4.50;99.90
51655;DHT22;37732;53.106;7.030;2024-01-30T01:58:28;4.60;99.90
51655;DHT22;37732;53.106;7.030;2024-01-30T02:03:30;4.50;99.90
51655;DHT22;37732;53.106;7.030;2024-01-30T02:05:56;5.40;99.90
51655;DHT22;37732;53.106;7.030;2024-01-30T02:08:23;4.60;99.90
51655;DHT22;37732;53.106;7.030;2024-01-30T02:10:49;5.20;99.90
51655;DHT22;37732;53.106;7.030;2024-01-30T02:13:14;4.70;99.90
51655;DHT22;37732;53.106;7.030;2024-01-30T02:15:40;4.60;99.90
51655;DHT22;37732;53.106;7.030;2024-01-30T02:18:06;5.50;99.90
51655;DHT22;37732;53.106;7.030;2024-01-30T02:20:35;4.60;99.90
51655;DHT22;37732;53.106;7.030;2024-01-30T02:23:01;4.70;99.90
51655;DHT22;37732;53.106;7.030;2024-01-30T02:25:32;4.60;99.90
51655;DHT22;37732;53.106;7.030;2024-01-30T02:27:58;4.70;99.90
51655;DHT22;37732;53.106;7.030;2024-01-30T02:30:24;4.70;99.90
51655;DHT22;37732;53.106;7.030;2024-01-30T02:32:49;4.60;99.90
51655;DHT22;37732;53.106;7.030;2024-01-30T02:35:15;4.60;99.90
51655;DHT22;37732;53.106;7.030;2024-01-30T02:37:41;4.80;99.90
51655;DHT22;37732;53.106;7.030;2024-01-30T02:40:07;4.70;99.90
51655;DHT22;37732;53.106;7.030;2024-01-30T02:42:33;4.70;99.90
51655;DHT22;37732;53.106;7.030;2024-01-30T02:44:58;4.70;99.90
51655;DHT22;37732;53.106;7.030;2024-01-30T02:47:24;4.90;99.90
51655;DHT22;37732;53.106;7.030;2024-01-30T02:49:50;4.80;99.90
51655;DHT22;37732;53.106;7.030;2024-01-30T02:52:15;4.80;99.90
51655;DHT22;37732;53.106;7.030;2024-01-30T02:54:41;5.00;99.90
51655;DHT22;37732;53.106;7.030;2024-01-30T02:57:06;4.80;99.90
51655;DHT22;37732;53.106;7.030;2024-01-30T02:59:32;4.90;99.90
51655;DHT22;37732;53.106;7.030;2024-01-30T03:02:01;4.90;99.90
51655;DHT22;37732;53.106;7.030;2024-01-30T03:04:27;5.70;99.90
51655;DHT22;37732;53.106;7.030;2024-01-30T03:06:52;5.00;99.90
51655;DHT22;37732;53.106;7.030;2024-01-30T03:09:18;4.80;99.90
51655;DHT22;37732;53.106;7.030;2024-01-30T03:11:44;4.90;99.90
51655;DHT22;37732;53.106;7.030;2024-01-30T03:14:10;5.20;99.90
51655;DHT22;37732;53.106;7.030;2024-01-30T03:16:38;5.10;99.90
51655;DHT22;37732;53.106;7.030;2024-01-30T03:19:06;4.80;99.90
51655;DHT22;37732;53.106;7.030;2024-01-30T03:21:33;4.90;99.90
51655;DHT22;37732;53.106;7.030;2024-01-30T03:23:59;5.00;99.90
51655;DHT22;37732;53.106;7.030;2024-01-30T03:26:25;4.60;99.90
51655;DHT22;37732;53.106;7.030;2024-01-30T03:28:50;5.20;99.90
51655;DHT22;37732;53.106;7.030;2024-01-30T03:31:16;4.90;99.90
51655;DHT22;37732;53.106;7.030;2024-01-30T03:33:42;4.90;99.90
51655;DHT22;37732;53.106;7.030;2024-01-30T03:36:09;5.00;99.90
51655;DHT22;37732;53.106;7.030;2024-01-30T03:38:35;4.90;99.90
51655;DHT22;37732;53.106;7.030;2024-01-30T03:41:00;4.90;99.90
51655;DHT22;37732;53.106;7.030;2024-01-30T03:43:26;4.90;99.90
51655;DHT22;37732;53.106;7.030;2024-01-30T03:45:52;5.00;99.90
51655;DHT22;37732;53.106;7.030;2024-01-30T03:48:19;5.60;99.90
51655;DHT22;37732;53.106;7.030;2024-01-30T03:50:45;4.90;99.90
51655;DHT22;37732;53.106;7.030;2024-01-30T03:53:11;5.00;99.90
51655;DHT22;37732;53.106;7.030;2024-01-30T03:55:36;5.10;99.90
51655;DHT22;37732;53.106;7.030;2024-01-30T03:58:02;5.40;99.90
51655;DHT22;37732;53.106;7.030;2024-01-30T04:00:28;5.10;99.90
51655;DHT22;37732;53.106;7.030;2024-01-30T04:02:53;5.20;99.90
51655;DHT22;37732;53.106;7.030;2024-01-30T04:05:19;5.20;99.90
51655;DHT22;37732;53.106;7.030;2024-01-30T04:07:45;5.10;99.90
51655;DHT22;37732;53.106;7.030;2024-01-30T04:10:10;5.20;99.90
51655;DHT22;37732;53.106;7.030;2024-01-30T04:12:36;5.20;99.90
51655;DHT22;37732;53.106;7.030;2024-01-30T04:15:02;5.20;99.90
51655;DHT22;37732;53.106;7.030;2024-01-30T04:17:29;5.20;99.90
51655;DHT22;37732;53.106;7.030;2024-01-30T04:19:55;6.00;99.90
51655;DHT22;37732;53.106;7.030;2024-01-30T04:22:20;5.20;99.90
51655;DHT22;37732;53.106;7.030;2024-01-30T04:24:46;5.30;99.90
51655;DHT22;37732;53.106;7.030;2024-01-30T04:27:12;5.20;99.90
51655;DHT22;37732;53.106;7.030;2024-01-30T04:29:38;5.40;99.90
51655;DHT22;37732;53.106;7.030;2024-01-30T04:32:04;5.60;99.90
51655;DHT22;37732;53.106;7.030;2024-01-30T04:34:30;5.40;99.90
51655;DHT22;37732;53.106;7.030;2024-01-30T04:36:55;5.50;99.90
51655;DHT22;37732;53.106;7.030;2024-01-30T04:39:21;5.70;99.90
51655;DHT22;37732;53.106;7.030;2024-01-30T04:41:47;5.40;99.90
51655;DHT22;37732;53.106;7.030;2024-01-30T04:44:14;6.10;99.90
51655;DHT22;37732;53.106;7.030;2024-01-30T04:46:39;5.50;99.90
51655;DHT22;37732;53.106;7.030;2024-01-30T04:49:05;5.00;99.90
51655;DHT22;37732;53.106;7.030;2024-01-30T04:51:33;5.60;99.90
51655;DHT22;37732;53.106;7.030;2024-01-30T04:53:59;5.50;99.90
51655;DHT22;37732;53.106;7.030;2024-01-30T04:56:24;5.80;99.90
51655;DHT22;37732;53.106;7.030;2024-01-30T04:58:50;5.50;99.90
51655;DHT22;37732;53.106;7.030;2024-01-30T05:01:16;5.60;99.90
51655;DHT22;37732;53.106;7.030;2024-01-30T05:03:42;5.60;99.90
51655;DHT22;37732;53.106;7.030;2024-01-30T05:06:08;5.70;99.90
51655;DHT22;37732;53.106;7.030;2024-01-30T05:08:34;6.10;99.90
51655;DHT22;37732;53.106;7.030;2024-01-30T05:11:02;5.70;99.90
51655;DHT22;37732;53.106;7.030;2024-01-30T05:13:30;5.60;99.90
51655;DHT22;37732;53.106;7.030;2024-01-30T05:15:56;5.90;99.90
51655;DHT22;37732;53.106;7.030;2024-01-30T05:18:22;6.50;99.90
51655;DHT22;37732;53.106;7.030;2024-01-30T05:20:47;5.60;99.90
51655;DHT22;37732;53.106;7.030;2024-01-30T05:23:13;6.30;99.90
51655;DHT22;37732;53.106;7.030;2024-01-30T05:25:39;5.80;99.90
51655;DHT22;37732;53.106;7.030;2024-01-30T05:28:05;5.80;99.90
51655;DHT22;37732;53.106;7.030;2024-01-30T05:30:31;5.90;99.90
51655;DHT22;37732;53.106;7.030;2024-01-30T05:32:56;5.90;99.90
51655;DHT22;37732;53.106;7.030;2024-01-30T05:35:22;6.10;99.90
51655;DHT22;37732;53.106;7.030;2024-01-30T05:37:48;6.10;99.90
51655;DHT22;37732;53.106;7.030;2024-01-30T05:40:15;5.90;99.90
51655;DHT22;37732;53.106;7.030;2024-01-30T05:42:41;5.90;99.90
51655;DHT22;37732;53.106;7.030;2024-01-30T05:45:07;5.90;99.90
51655;DHT22;37732;53.106;7.030;2024-01-30T05:47:34;5.90;99.90
51655;DHT22;37732;53.106;7.030;2024-01-30T05:50:00;6.00;99.90
51655;DHT22;37732;53.106;7.030;2024-01-30T05:52:25;6.00;99.90
51655;DHT22;37732;53.106;7.030;2024-01-30T05:54:51;6.00;99.90
51655;DHT22;37732;53.106;7.030;2024-01-30T05:57:17;6.00;99.90
51655;DHT22;37732;53.106;7.030;2024-01-30T05:59:44;5.90;99.90
51655;DHT22;37732;53.106;7.030;2024-01-30T06:02:13;6.20;99.90
51655;DHT22;37732;53.106;7.030;2024-01-30T06:04:38;6.00;99.90
51655;DHT22;37732;53.106;7.030;2024-01-30T06:07:04;6.80;99.90
51655;DHT22;37732;53.106;7.030;2024-01-30T06:09:32;6.00;99.90
51655;DHT22;37732;53.106;7.030;2024-01-30T06:11:57;6.00;99.90
51655;DHT22;37732;53.106;7.030;2024-01-30T06:14:23;6.10;99.90
51655;DHT22;37732;53.106;7.030;2024-01-30T06:16:49;6.40;99.90
51655;DHT22;37732;53.106;7.030;2024-01-30T06:19:15;6.80;99.90
51655;DHT22;37732;53.106;7.030;2024-01-30T06:21:41;6.20;99.90
51655;DHT22;37732;53.106;7.030;2024-01-30T06:24:07;6.20;99.90
51655;DHT22;37732;53.106;7.030;2024-01-30T06:26:33;6.20;99.90
51655;DHT22;37732;53.106;7.030;2024-01-30T06:28:59;6.40;99.90
51655;DHT22;37732;53.106;7.030;2024-01-30T06:31:25;6.20;99.90
51655;DHT22;37732;53.106;7.030;2024-01-30T06:33:50;6.30;99.90
51655;DHT22;37732;53.106;7.030;2024-01-30T06:36:16;6.30;99.90
51655;DHT22;37732;53.106;7.030;2024-01-30T06:38:42;6.30;99.90
51655;DHT22;37732;53.106;7.030;2024-01-30T06:41:07;6.40;99.90
51655;DHT22;37732;53.106;7.030;2024-01-30T06:43:33;6.40;99.90
51655;DHT22;37732;53.106;7.030;2024-01-30T06:45:59;6.40;99.90
51655;DHT22;37732;53.106;7.030;2024-01-30T06:48:25;6.40;99.90
51655;DHT22;37732;53.106;7.030;2024-01-30T06:50:53;6.50;99.90
51655;DHT22;37732;53.106;7.030;2024-01-30T06:53:19;6.40;99.90
51655;DHT22;37732;53.106;7.030;2024-01-30T06:55:45;6.50;99.90
51655;DHT22;37732;53.106;7.030;2024-01-30T06:58:11;6.50;99.90
51655;DHT22;37732;53.106;7.030;2024-01-30T07:00:37;6.60;99.90
51655;DHT22;37732;53.106;7.030;2024-01-30T07:03:03;6.50;99.90
51655;DHT22;37732;53.106;7.030;2024-01-30T07:05:29;6.60;99.90
51655;DHT22;37732;53.106;7.030;2024-01-30T07:07:55;6.50;99.90
51655;DHT22;37732;53.106;7.030;2024-01-30T07:10:21;6.60;99.90
51655;DHT22;37732;53.106;7.030;2024-01-30T07:12:47;6.60;99.90
51655;DHT22;37732;53.106;7.030;2024-01-30T07:15:12;7.40;99.90
51655;DHT22;37732;53.106;7.030;2024-01-30T07:17:42;6.60;99.90
51655;DHT22;37732;53.106;7.030;2024-01-30T07:20:08;6.60;99.90
51655;DHT22;37732;53.106;7.030;2024-01-30T07:22:34;6.60;99.90
51655;DHT22;37732;53.106;7.030;2024-01-30T07:25:00;6.60;99.90
51655;DHT22;37732;53.106;7.030;2024-01-30T07:27:26;6.90;99.90
51655;DHT22;37732;53.106;7.030;2024-01-30T07:29:52;6.70;99.90
51655;DHT22;37732;53.106;7.030;2024-01-30T07:32:17;6.60;99.90
51655;DHT22;37732;53.106;7.030;2024-01-30T07:34:44;6.60;99.90
51655;DHT22;37732;53.106;7.030;2024-01-30T07:37:09;6.50;99.90
51655;DHT22;37732;53.106;7.030;2024-01-30T07:39:36;6.70;99.90
51655;DHT22;37732;53.106;7.030;2024-01-30T07:42:02;6.70;99.90
51655;DHT22;37732;53.106;7.030;2024-01-30T07:44:28;6.70;99.90
51655;DHT22;37732;53.106;7.030;2024-01-30T07:46:54;6.80;99.90
51655;DHT22;37732;53.106;7.030;2024-01-30T07:49:20;6.90;99.90
51655;DHT22;37732;53.106;7.030;2024-01-30T07:51:46;6.70;99.90
51655;DHT22;37732;53.106;7.030;2024-01-30T07:54:11;6.80;99.90
51655;DHT22;37732;53.106;7.030;2024-01-30T07:56:40;6.80;99.90
51655;DHT22;37732;53.106;7.030;2024-01-30T07:59:10;6.90;99.90
51655;DHT22;37732;53.106;7.030;2024-01-30T08:01:36;6.90;99.90
51655;DHT22;37732;53.106;7.030;2024-01-30T08:04:02;7.00;99.90
51655;DHT22;37732;53.106;7.030;2024-01-30T08:06:27;7.00;99.90
51655;DHT22;37732;53.106;7.030;2024-01-30T08:08:53;7.00;99.90
51655;DHT22;37732;53.106;7.030;2024-01-30T08:11:22;7.00;99.90
51655;DHT22;37732;53.106;7.030;2024-01-30T08:13:55;7.00;99.90
51655;DHT22;37732;53.106;7.030;2024-01-30T08:16:21;7.00;99.90
51655;DHT22;37732;53.106;7.030;2024-01-30T08:18:46;7.20;99.90
51655;DHT22;37732;53.106;7.030;2024-01-30T08:21:12;6.90;99.90
51655;DHT22;37732;53.106;7.030;2024-01-30T08:23:42;7.00;99.90
51655;DHT22;37732;53.106;7.030;2024-01-30T08:26:08;7.10;99.90
51655;DHT22;37732;53.106;7.030;2024-01-30T08:28:34;7.20;99.90
51655;DHT22;37732;53.106;7.030;2024-01-30T08:30:59;7.10;99.90
51655;DHT22;37732;53.106;7.030;2024-01-30T08:33:25;7.30;99.90
51655;DHT22;37732;53.106;7.030;2024-01-30T08:35:50;7.30;99.90
51655;DHT22;37732;53.106;7.030;2024-01-30T08:38:16;7.20;99.90
51655;DHT22;37732;53.106;7.030;2024-01-30T08:40:42;7.30;99.90
51655;DHT22;37732;53.106;7.030;2024-01-30T08:43:07;7.40;99.90
51655;DHT22;37732;53.106;7.030;2024-01-30T08:45:35;7.40;99.90
51655;DHT22;37732;53.106;7.030;2024-01-30T08:48:01;7.50;99.90
51655;DHT22;37732;53.106;7.030;2024-01-30T08:50:27;7.60;99.90
51655;DHT22;37732;53.106;7.030;2024-01-30T08:52:53;7.70;99.90
51655;DHT22;37732;53.106;7.030;2024-01-30T08:55:18;7.80;99.90
51655;DHT22;37732;53.106;7.030;2024-01-30T08:57:44;7.80;99.90
51655;DHT22;37732;53.106;7.030;2024-01-30T09:00:10;7.80;99.90
51655;DHT22;37732;53.106;7.030;2024-01-30T09:02:36;7.90;99.90
51655;DHT22;37732;53.106;7.030;2024-01-30T09:05:02;8.00;99.90
51655;DHT22;37732;53.106;7.030;2024-01-30T09:07:28;8.10;99.90
51655;DHT22;37732;53.106;7.030;2024-01-30T09:09:53;8.10;99.90
51655;DHT22;37732;53.106;7.030;2024-01-30T09:12:19;8.20;99.90
51655;DHT22;37732;53.106;7.030;2024-01-30T09:14:45;8.20;99.90
51655;DHT22;37732;53.106;7.030;2024-01-30T09:17:10;8.30;99.90
51655;DHT22;37732;53.106;7.030;2024-01-30T09:19:36;8.30;99.90
51655;DHT22;37732;53.106;7.030;2024-01-30T09:22:02;8.40;99.90
51655;DHT22;37732;53.106;7.030;2024-01-30T09:24:28;8.40;99.90
51655;DHT22;37732;53.106;7.030;2024-01-30T09:26:54;8.60;99.90
51655;DHT22;37732;53.106;7.030;2024-01-30T09:29:19;8.60;99.90
51655;DHT22;37732;53.106;7.030;2024-01-30T09:31:46;8.60;99.90
51655;DHT22;37732;53.106;7.030;2024-01-30T09:34:12;8.70;99.90
51655;DHT22;37732;53.106;7.030;2024-01-30T09:36:37;8.90;99.90
51655;DHT22;37732;53.106;7.030;2024-01-30T09:39:03;8.70;99.90
51655;DHT22;37732;53.106;7.030;2024-01-30T09:41:32;8.80;99.90
51655;DHT22;37732;53.106;7.030;2024-01-30T09:43:59;8.80;99.90
51655;DHT22;37732;53.106;7.030;2024-01-30T09:46:27;8.80;99.90
51655;DHT22;37732;53.106;7.030;2024-01-30T09:48:55;8.80;99.90
51655;DHT22;37732;53.106;7.030;2024-01-30T09:51:21;8.90;99.90
51655;DHT22;37732;53.106;7.030;2024-01-30T09:53:48;8.90;99.90
51655;DHT22;37732;53.106;7.030;2024-01-30T09:56:14;8.90;99.90
51655;DHT22;37732;53.106;7.030;2024-01-30T09:58:40;9.00;99.90
51655;DHT22;37732;53.106;7.030;2024-01-30T10:01:07;9.10;99.90
51655;DHT22;37732;53.106;7.030;2024-01-30T10:03:33;9.10;99.90
51655;DHT22;37732;53.106;7.030;2024-01-30T10:05:59;9.00;99.90
51655;DHT22;37732;53.106;7.030;2024-01-30T10:08:26;9.00;99.90
51655;DHT22;37732;53.106;7.030;2024-01-30T10:10:52;9.20;99.90
51655;DHT22;37732;53.106;7.030;2024-01-30T10:13:18;9.10;99.90
51655;DHT22;37732;53.106;7.030;2024-01-30T10:15:44;9.10;99.90
51655;DHT22;37732;53.106;7.030;2024-01-30T10:18:13;9.10;99.90
51655;DHT22;37732;53.106;7.030;2024-01-30T10:20:38;9.10;99.90
51655;DHT22;37732;53.106;7.030;2024-01-30T10:23:04;9.20;99.90
51655;DHT22;37732;53.106;7.030;2024-01-30T10:25:33;9.20;99.90
51655;DHT22;37732;53.106;7.030;2024-01-30T10:27:59;9.30;99.90
51655;DHT22;37732;53.106;7.030;2024-01-30T10:30:24;9.40;99.90
51655;DHT22;37732;53.106;7.030;2024-01-30T10:32:50;9.40;99.90
51655;DHT22;37732;53.106;7.030;2024-01-30T10:35:17;9.40;99.90
51655;DHT22;37732;53.106;7.030;2024-01-30T10:37:47;9.40;99.90
51655;DHT22;37732;53.106;7.030;2024-01-30T10:40:14;9.40;99.90
51655;DHT22;37732;53.106;7.030;2024-01-30T10:42:43;9.50;99.90
51655;DHT22;37732;53.106;7.030;2024-01-30T10:45:10;9.50;99.90
51655;DHT22;37732;53.106;7.030;2024-01-30T10:47:59;9.40;99.90
51655;DHT22;37732;53.106;7.030;2024-01-30T10:50:25;9.50;99.90
51655;DHT22;37732;53.106;7.030;2024-01-30T10:52:53;9.50;99.90
51655;DHT22;37732;53.106;7.030;2024-01-30T10:55:19;9.50;99.90
51655;DHT22;37732;53.106;7.030;2024-01-30T10:57:46;9.50;99.90
51655;DHT22;37732;53.106;7.030;2024-01-30T11:00:14;9.60;99.90
51655;DHT22;37732;53.106;7.030;2024-01-30T11:02:45;9.60;99.90
51655;DHT22;37732;53.106;7.030;2024-01-30T11:05:12;9.60;99.90
51655;DHT22;37732;53.106;7.030;2024-01-30T11:07:39;9.70;99.90
51655;DHT22;37732;53.106;7.030;2024-01-30T11:10:08;9.70;99.90
51655;DHT22;37732;53.106;7.030;2024-01-30T11:12:38;9.70;99.90
51655;DHT22;37732;53.106;7.030;2024-01-30T11:15:16;9.80;99.90
51655;DHT22;37732;53.106;7.030;2024-01-30T11:17:45;9.80;99.90
51655;DHT22;37732;53.106;7.030;2024-01-30T11:20:16;9.80;99.90
51655;DHT22;37732;53.106;7.030;2024-01-30T11:22:42;9.90;99.90
51655;DHT22;37732;53.106;7.030;2024-01-30T11:25:16;9.90;99.90
51655;DHT22;37732;53.106;7.030;2024-01-30T11:27:43;10.00;99.90
51655;DHT22;37732;53.106;7.030;2024-01-30T11:30:10;10.00;99.90
51655;DHT22;37732;53.106;7.030;2024-01-30T11:32:36;10.00;99.90
51655;DHT22;37732;53.106;7.030;2024-01-30T11:35:05;10.00;99.90
51655;DHT22;37732;53.106;7.030;2024-01-30T11:37:32;10.00;99.90
51655;DHT22;37732;53.106;7.030;2024-01-30T11:39:59;10.10;99.90
51655;DHT22;37732;53.106;7.030;2024-01-30T11:42:26;10.00;99.90
51655;DHT22;37732;53.106;7.030;2024-01-30T11:44:52;10.10;99.90
51655;DHT22;37732;53.106;7.030;2024-01-30T11:52:10;10.20;99.90
51655;DHT22;37732;53.106;7.030;2024-01-30T11:54:39;10.10;99.90
51655;DHT22;37732;53.106;7.030;2024-01-30T11:57:05;10.10;99.90
51655;DHT22;37732;53.106;7.030;2024-01-30T11:59:31;10.10;99.90
51655;DHT22;37732;53.106;7.030;2024-01-30T12:01:56;10.20;99.90
51655;DHT22;37732;53.106;7.030;2024-01-30T12:04:22;10.20;99.90
51655;DHT22;37732;53.106;7.030;2024-01-30T12:06:51;10.20;99.90
51655;DHT22;37732;53.106;7.030;2024-01-30T12:09:17;10.20;99.90
51655;DHT22;37732;53.106;7.030;2024-01-30T12:11:46;10.20;99.90
51655;DHT22;37732;53.106;7.030;2024-01-30T12:14:12;10.20;99.90
51655;DHT22;37732;53.106;7.030;2024-01-30T12:16:38;10.20;99.90
51655;DHT22;37732;53.106;7.030;2024-01-30T12:19:04;10.20;99.90
51655;DHT22;37732;53.106;7.030;2024-01-30T12:21:29;10.20;99.90
51655;DHT22;37732;53.106;7.030;2024-01-30T12:23:56;10.20;99.90
51655;DHT22;37732;53.106;7.030;2024-01-30T12:26:23;10.20;99.90
51655;DHT22;37732;53.106;7.030;2024-01-30T12:28:51;10.20;99.90
51655;DHT22;37732;53.106;7.030;2024-01-30T12:31:28;10.20;99.90
51655;DHT22;37732;53.106;7.030;2024-01-30T12:33:54;10.30;99.90
51655;DHT22;37732;53.106;7.030;2024-01-30T12:36:21;10.30;99.90
51655;DHT22;37732;53.106;7.030;2024-01-30T12:38:47;10.40;99.90
51655;DHT22;37732;53.106;7.030;2024-01-30T12:41:13;10.40;99.90
51655;DHT22;37732;53.106;7.030;2024-01-30T12:43:39;10.40;99.90
51655;DHT22;37732;53.106;7.030;2024-01-30T12:46:05;10.40;99.90
51655;DHT22;37732;53.106;7.030;2024-01-30T12:48:31;10.40;99.90
51655;DHT22;37732;53.106;7.030;2024-01-30T12:50:57;10.40;99.90
51655;DHT22;37732;53.106;7.030;2024-01-30T12:53:23;10.30;99.90
51655;DHT22;37732;53.106;7.030;2024-01-30T12:55:48;10.20;99.90
51655;DHT22;37732;53.106;7.030;2024-01-30T12:58:15;10.20;99.90
51655;DHT22;37732;53.106;7.030;2024-01-30T13:00:41;10.10;99.90
51655;DHT22;37732;53.106;7.030;2024-01-30T13:03:09;10.10;99.90
51655;DHT22;37732;53.106;7.030;2024-01-30T13:05:35;10.10;99.90
51655;DHT22;37732;53.106;7.030;2024-01-30T13:08:01;10.20;99.90
51655;DHT22;37732;53.106;7.030;2024-01-30T13:10:27;10.20;99.90
51655;DHT22;37732;53.106;7.030;2024-01-30T13:12:53;10.10;99.90
51655;DHT22;37732;53.106;7.030;2024-01-30T13:15:19;10.20;99.90
51655;DHT22;37732;53.106;7.030;2024-01-30T13:17:44;10.10;99.90
51655;DHT22;37732;53.106;7.030;2024-01-30T13:20:13;10.10;99.90
51655;DHT22;37732;53.106;7.030;2024-01-30T13:22:44;10.10;99.90
51655;DHT22;37732;53.106;7.030;2024-01-30T13:25:10;10.10;99.90
51655;DHT22;37732;53.106;7.030;2024-01-30T13:27:39;10.10;99.90
51655;DHT22;37732;53.106;7.030;2024-01-30T13:30:07;10.10;99.90
51655;DHT22;37732;53.106;7.030;2024-01-30T13:32:36;10.00;99.90
51655;DHT22;37732;53.106;7.030;2024-01-30T13:35:02;10.00;99.90
51655;DHT22;37732;53.106;7.030;2024-01-30T13:37:28;10.00;99.90
51655;DHT22;37732;53.106;7.030;2024-01-30T13:39:55;10.00;99.90
51655;DHT22;37732;53.106;7.030;2024-01-30T13:42:21;10.00;99.90
51655;DHT22;37732;53.106;7.030;2024-01-30T13:44:47;9.90;99.90
51655;DHT22;37732;53.106;7.030;2024-01-30T13:47:13;9.90;99.90
51655;DHT22;37732;53.106;7.030;2024-01-30T13:49:38;9.90;99.90
51655;DHT22;37732;53.106;7.030;2024-01-30T13:52:04;9.80;99.90
51655;DHT22;37732;53.106;7.030;2024-01-30T13:54:30;9.80;99.90
51655;DHT22;37732;53.106;7.030;2024-01-30T13:56:56;9.70;99.90
51655;DHT22;37732;53.106;7.030;2024-01-30T13:59:25;9.70;99.90
51655;DHT22;37732;53.106;7.030;2024-01-30T14:01:51;9.80;99.90
51655;DHT22;37732;53.106;7.030;2024-01-30T14:04:17;9.70;99.90
51655;DHT22;37732;53.106;7.030;2024-01-30T14:06:43;9.70;99.90
51655;DHT22;37732;53.106;7.030;2024-01-30T14:09:09;9.70;99.90
51655;DHT22;37732;53.106;7.030;2024-01-30T14:11:35;9.60;99.90
51655;DHT22;37732;53.106;7.030;2024-01-30T14:14:01;9.70;99.90
51655;DHT22;37732;53.106;7.030;2024-01-30T14:16:27;9.70;99.90
51655;DHT22;37732;53.106;7.030;2024-01-30T14:18:54;9.70;99.90
51655;DHT22;37732;53.106;7.030;2024-01-30T14:21:19;9.80;99.90
51655;DHT22;37732;53.106;7.030;2024-01-30T14:23:45;9.80;99.90
51655;DHT22;37732;53.106;7.030;2024-01-30T14:26:12;9.90;99.90
51655;DHT22;37732;53.106;7.030;2024-01-30T14:28:38;9.90;99.90
51655;DHT22;37732;53.106;7.030;2024-01-30T14:31:04;9.90;99.90
51655;DHT22;37732;53.106;7.030;2024-01-30T14:33:30;9.90;99.90
51655;DHT22;37732;53.106;7.030;2024-01-30T14:35:56;9.90;99.90
51655;DHT22;37732;53.106;7.030;2024-01-30T14:38:21;9.90;99.90
51655;DHT22;37732;53.106;7.030;2024-01-30T14:40:47;9.90;99.90
51655;DHT22;37732;53.106;7.030;2024-01-30T14:43:13;9.80;99.90
51655;DHT22;37732;53.106;7.030;2024-01-30T14:45:39;9.70;99.90
51655;DHT22;37732;53.106;7.030;2024-01-30T14:48:05;9.70;99.90
51655;DHT22;37732;53.106;7.030;2024-01-30T14:50:31;9.70;99.90
51655;DHT22;37732;53.106;7.030;2024-01-30T14:52:57;9.60;99.90
51655;DHT22;37732;53.106;7.030;2024-01-30T14:55:22;9.60;99.90
51655;DHT22;37732;53.106;7.030;2024-01-30T14:57:49;9.50;99.90
51655;DHT22;37732;53.106;7.030;2024-01-30T15:00:16;9.50;99.90
51655;DHT22;37732;53.106;7.030;2024-01-30T15:02:41;9.50;99.90
51655;DHT22;37732;53.106;7.030;2024-01-30T15:05:07;9.50;99.90
51655;DHT22;37732;53.106;7.030;2024-01-30T15:07:33;9.40;99.90
51655;DHT22;37732;53.106;7.030;2024-01-30T15:09:59;9.40;99.90
51655;DHT22;37732;53.106;7.030;2024-01-30T15:12:25;9.40;99.90
51655;DHT22;37732;53.106;7.030;2024-01-30T15:14:51;9.30;99.90
51655;DHT22;37732;53.106;7.030;2024-01-30T15:17:18;9.20;99.90
51655;DHT22;37732;53.106;7.030;2024-01-30T15:19:44;9.10;99.90
51655;DHT22;37732;53.106;7.030;2024-01-30T15:22:09;9.00;99.90
51655;DHT22;37732;53.106;7.030;2024-01-30T15:24:35;9.00;99.90
51655;DHT22;37732;53.106;7.030;2024-01-30T15:27:01;9.00;99.90
51655;DHT22;37732;53.106;7.030;2024-01-30T15:29:27;8.90;99.90
51655;DHT22;37732;53.106;7.030;2024-01-30T15:31:52;8.90;99.90
51655;DHT22;37732;53.106;7.030;2024-01-30T15:34:18;8.90;99.90
51655;DHT22;37732;53.106;7.030;2024-01-30T15:36:44;8.90;99.90
51655;DHT22;37732;53.106;7.030;2024-01-30T15:39:09;8.80;99.90
51655;DHT22;37732;53.106;7.030;2024-01-30T15:41:36;8.80;99.90
51655;DHT22;37732;53.106;7.030;2024-01-30T15:44:03;8.80;99.90
51655;DHT22;37732;53.106;7.030;2024-01-30T15:46:29;8.80;99.90